createdAt,value
2018-06-07T00:01:42.395Z,77.50
2018-06-07T00:04:12.445Z,77.70
2018-06-07T00:06:42.616Z,78.00
2018-06-07T00:09:12.760Z,78.10
2018-06-07T00:11:42.816Z,78.00
2018-06-07T00:14:12.882Z,78.10
2018-06-07T00:16:43.104Z,78.30
2018-06-07T00:19:13.193Z,78.50
2018-06-07T00:21:43.291Z,79.00
2018-06-07T00:24:13.404Z,79.20
2018-06-07T00:26:43.528Z,79.40
2018-06-07T00:29:13.647Z,79.60
2018-06-07T00:31:43.758Z,79.80
2018-06-07T00:36:43.734Z,80.10
2018-06-07T00:39:13.935Z,80.40
2018-06-07T00:41:43.952Z,80.50
2018-06-07T00:44:13.957Z,80.60
2018-06-07T00:46:44.036Z,80.50
2018-06-07T00:49:14.095Z,80.30
2018-06-07T00:51:44.186Z,80.30
2018-06-07T00:54:14.232Z,81.60
2018-06-07T00:57:19.358Z,81.50
2018-06-07T00:59:49.431Z,82.50
2018-06-07T01:02:19.514Z,82.50
2018-06-07T01:04:49.568Z,83.10
2018-06-07T01:07:19.677Z,83.40
2018-06-07T01:09:49.774Z,83.70
2018-06-07T01:12:19.851Z,84.00
2018-06-07T01:14:49.894Z,84.30
2018-06-07T01:17:20.008Z,84.20
2018-06-07T01:19:50.014Z,84.10
2018-06-07T01:22:20.104Z,83.10
2018-06-07T01:24:50.172Z,83.10
2018-06-07T01:27:20.358Z,83.40
2018-06-07T01:30:06.868Z,82.70
2018-06-07T01:32:58.788Z,83.00
2018-06-07T01:35:28.870Z,82.40
2018-06-07T01:38:15.686Z,81.90
2018-06-07T01:40:45.731Z,81.60
2018-06-07T01:43:15.787Z,80.70
2018-06-07T01:45:45.758Z,79.90
2018-06-07T01:48:16.107Z,79.50
2018-06-07T01:50:46.229Z,79.00
2018-06-07T01:53:16.246Z,79.20
2018-06-07T01:55:46.367Z,78.70
2018-06-07T01:58:16.435Z,78.80
2018-06-07T02:00:46.529Z,78.80
2018-06-07T02:03:16.555Z,79.10
2018-06-07T02:05:46.654Z,79.00
2018-06-07T02:08:16.859Z,79.70
2018-06-07T02:10:46.872Z,79.70
2018-06-07T02:13:16.952Z,79.60
2018-06-07T02:15:47.035Z,79.40
2018-06-07T02:18:17.049Z,79.50
2018-06-07T02:20:47.191Z,79.30
2018-06-07T02:23:17.224Z,79.30
2018-06-07T02:25:47.252Z,79.20
2018-06-07T02:28:17.342Z,78.70
2018-06-07T02:30:47.463Z,79.00
2018-06-07T02:33:17.570Z,78.70
2018-06-07T02:35:47.713Z,78.20
2018-06-07T02:38:17.721Z,78.30
2018-06-07T02:40:47.833Z,78.60
2018-06-07T02:43:17.857Z,78.20
2018-06-07T02:45:47.915Z,78.00
2018-06-07T02:48:18.023Z,77.80
2018-06-07T02:50:48.071Z,77.20
2018-06-07T02:53:18.093Z,77.50
2018-06-07T02:55:48.179Z,77.40
2018-06-07T02:58:18.196Z,77.20
2018-06-07T03:00:48.346Z,77.30
2018-06-07T03:03:18.372Z,77.30
2018-06-07T03:05:48.424Z,77.60
2018-06-07T03:08:18.751Z,77.30
2018-06-07T03:10:48.827Z,77.40
2018-06-07T03:13:18.844Z,77.60
2018-06-07T03:15:48.878Z,77.60
2018-06-07T03:18:18.879Z,77.60
2018-06-07T03:20:48.926Z,77.40
2018-06-07T03:23:19.063Z,77.70
2018-06-07T03:25:49.118Z,77.50
2018-06-07T03:28:19.192Z,77.20
2018-06-07T03:30:49.264Z,77.10
2018-06-07T03:35:49.103Z,76.10
2018-06-07T03:38:19.110Z,76.60
2018-06-07T03:40:49.146Z,76.30
2018-06-07T03:43:19.111Z,76.30
2018-06-07T03:45:49.623Z,75.90
2018-06-07T03:48:19.591Z,75.70
2018-06-07T03:50:49.570Z,76.20
2018-06-07T03:53:19.502Z,75.90
2018-06-07T03:55:49.501Z,76.60
2018-06-07T03:58:19.474Z,77.10
2018-06-07T04:00:50.136Z,77.10
2018-06-07T04:05:49.882Z,77.10
2018-06-07T04:08:19.955Z,76.90
2018-06-07T04:10:50.020Z,76.80
2018-06-07T04:13:20.149Z,77.00
2018-06-07T04:15:50.752Z,77.50
2018-06-07T04:18:20.852Z,77.80
2018-06-07T04:20:50.889Z,78.20
2018-06-07T04:23:20.936Z,79.00
2018-06-07T04:25:50.976Z,79.40
2018-06-07T04:28:21.011Z,79.70
2018-06-07T04:30:50.980Z,80.20
2018-06-07T04:33:20.996Z,80.70
2018-06-07T04:35:50.966Z,81.40
2018-06-07T04:38:20.954Z,81.50
2018-06-07T04:40:51.220Z,81.90
2018-06-07T04:43:21.262Z,82.40
2018-06-07T04:45:51.251Z,84.00
2018-06-07T04:48:21.243Z,84.20
2018-06-07T04:50:51.486Z,84.20
2018-06-07T04:53:21.507Z,84.90
2018-06-07T04:55:51.516Z,85.10
2018-06-07T04:58:21.538Z,85.20
2018-06-07T05:00:51.859Z,85.50
2018-06-07T05:05:51.423Z,85.90
2018-06-07T05:08:21.438Z,86.30
2018-06-07T05:10:51.404Z,86.60
2018-06-07T05:13:21.398Z,87.50
2018-06-07T05:15:51.876Z,87.20
2018-06-07T05:18:21.910Z,87.70
2018-06-07T05:20:51.891Z,86.80
2018-06-07T05:23:21.893Z,86.80
2018-06-07T05:25:51.874Z,86.80
2018-06-07T05:28:21.914Z,86.40
2018-06-07T05:30:51.875Z,86.10
2018-06-07T05:33:21.855Z,86.00
2018-06-07T05:35:51.836Z,85.90
2018-06-07T05:38:21.826Z,86.50
2018-06-07T05:40:51.798Z,85.70
2018-06-07T05:43:21.769Z,84.50
2018-06-07T05:45:51.727Z,84.50
2018-06-07T05:48:21.739Z,85.40
2018-06-07T05:50:51.686Z,86.70
2018-06-07T05:53:21.715Z,85.60
2018-06-07T05:55:51.729Z,86.40
2018-06-07T05:58:21.755Z,85.10
2018-06-07T06:00:51.769Z,84.20
2018-06-07T06:03:21.752Z,83.50
2018-06-07T06:08:21.389Z,83.30
2018-06-07T06:13:20.992Z,82.60
2018-06-07T06:15:51.155Z,82.30
2018-06-07T06:18:21.397Z,83.00
2018-06-07T06:20:51.651Z,82.50
2018-06-07T06:23:21.798Z,82.70
2018-06-07T06:25:51.823Z,83.80
2018-06-07T06:28:21.789Z,84.30
2018-06-07T06:30:51.813Z,82.20
2018-06-07T06:33:21.827Z,82.20
2018-06-07T06:35:51.838Z,83.40
2018-06-07T06:41:22.091Z,81.60
2018-06-07T06:43:52.268Z,81.20
2018-06-07T06:46:22.288Z,82.80
2018-06-07T06:48:52.312Z,82.90
2018-06-07T06:51:22.339Z,83.40
2018-06-07T06:53:52.362Z,83.60
2018-06-07T06:56:22.441Z,84.60
2018-06-07T06:58:52.506Z,85.10
2018-06-07T07:01:22.517Z,84.60
2018-06-07T07:03:52.541Z,84.50
2018-06-07T07:06:22.562Z,82.40
2018-06-07T07:08:52.562Z,82.40
2018-06-07T07:11:22.580Z,81.70
2018-06-07T07:13:52.565Z,81.60
2018-06-07T07:16:22.591Z,83.10
2018-06-07T07:18:52.605Z,83.70
2018-06-07T07:21:22.582Z,81.10
2018-06-07T07:23:52.611Z,83.00
2018-06-07T07:26:22.584Z,84.30
2018-06-07T07:28:52.597Z,83.20
2018-06-07T07:31:22.595Z,83.10
2018-06-07T07:33:52.604Z,81.80
2018-06-07T07:36:22.647Z,82.40
2018-06-07T07:38:52.704Z,83.50
2018-06-07T07:41:22.686Z,82.30
2018-06-07T07:43:52.721Z,83.50
2018-06-07T07:46:22.703Z,82.40
2018-06-07T07:51:22.290Z,80.20
2018-06-07T07:53:52.290Z,80.90
2018-06-07T07:56:22.345Z,82.60
2018-06-07T07:58:52.357Z,81.80
2018-06-07T08:01:22.465Z,79.80
2018-06-07T08:03:52.483Z,80.30
2018-06-07T08:06:22.576Z,81.40
2018-06-07T08:08:52.564Z,80.80
2018-06-07T08:11:22.575Z,79.80
2018-06-07T08:13:52.618Z,79.30
2018-06-07T08:16:22.609Z,82.20
2018-06-07T08:18:52.621Z,82.50
2018-06-07T08:21:22.662Z,81.80
2018-06-07T08:23:52.647Z,79.60
2018-06-07T08:26:22.749Z,80.30
2018-06-07T08:28:52.772Z,81.30
2018-06-07T08:31:22.806Z,82.70
2018-06-07T08:33:52.804Z,82.60
2018-06-07T08:36:22.858Z,82.90
2018-06-07T08:38:53.044Z,82.10
2018-06-07T08:41:23.217Z,80.80
2018-06-07T08:43:53.218Z,81.10
2018-06-07T08:46:23.223Z,81.20
2018-06-07T08:48:54.280Z,79.10
2018-06-07T08:51:24.569Z,77.90
2018-06-07T08:53:54.557Z,76.80
2018-06-07T08:56:24.650Z,76.60
2018-06-07T08:58:54.630Z,78.20
2018-06-07T09:01:24.680Z,77.70
2018-06-07T09:03:54.729Z,78.20
2018-06-07T09:06:24.740Z,77.90
2018-06-07T09:08:54.768Z,77.90
2018-06-07T09:11:24.787Z,76.80
2018-06-07T09:13:54.990Z,78.60
2018-06-07T09:16:25.057Z,78.30
2018-06-07T09:18:55.507Z,77.80
2018-06-07T09:23:55.141Z,78.00
2018-06-07T09:26:25.177Z,77.60
2018-06-07T09:28:55.221Z,78.90
2018-06-07T09:31:25.292Z,73.70
2018-06-07T09:33:55.284Z,75.10
2018-06-07T09:36:25.261Z,75.30
2018-06-07T09:38:55.393Z,76.00
2018-06-07T09:41:25.510Z,74.70
2018-06-07T09:43:55.506Z,70.80
2018-06-07T09:46:25.588Z,73.40
2018-06-07T09:48:55.687Z,72.30
2018-06-07T09:51:25.744Z,74.10
2018-06-07T09:53:55.855Z,69.50
2018-06-07T09:56:25.909Z,72.70
2018-06-07T09:58:55.943Z,75.70
2018-06-07T10:01:25.952Z,71.50
2018-06-07T10:03:56.025Z,69.70
2018-06-07T10:06:26.208Z,72.10
2018-06-07T10:08:56.293Z,71.40
2018-06-07T10:11:26.368Z,74.50
2018-06-07T10:13:56.424Z,72.10
2018-06-07T10:16:26.472Z,74.00
2018-06-07T10:18:56.509Z,71.00
2018-06-07T10:23:56.305Z,69.90
2018-06-07T10:26:26.418Z,71.80
2018-06-07T10:28:56.522Z,69.90
2018-06-07T10:31:26.581Z,70.50
2018-06-07T10:33:56.641Z,69.00
2018-06-07T10:36:26.641Z,72.70
2018-06-07T10:38:56.899Z,71.60
2018-06-07T10:41:26.989Z,69.90
2018-06-07T10:43:57.339Z,72.30
2018-06-07T10:46:27.447Z,67.20
2018-06-07T10:48:57.685Z,69.00
2018-06-07T10:51:27.767Z,70.10
2018-06-07T10:53:57.987Z,71.30
2018-06-07T10:56:28.855Z,70.50
2018-06-07T10:58:59.216Z,70.20
2018-06-07T11:01:29.471Z,71.70
2018-06-07T11:03:59.760Z,70.40
2018-06-07T11:06:29.942Z,69.50
2018-06-07T11:09:00.017Z,70.70
2018-06-07T11:11:30.082Z,70.20
2018-06-07T11:14:00.210Z,71.40
2018-06-07T11:16:31.234Z,72.90
2018-06-07T11:19:01.416Z,73.90
2018-06-07T11:21:31.433Z,73.00
2018-06-07T11:26:31.252Z,71.10
2018-06-07T11:29:01.657Z,71.70
2018-06-07T11:31:31.689Z,74.10
2018-06-07T11:34:01.743Z,72.50
2018-06-07T11:36:31.784Z,73.60
2018-06-07T11:39:01.899Z,72.30
2018-06-07T11:44:01.723Z,72.60
2018-06-07T11:46:31.762Z,73.80
2018-06-07T11:49:01.817Z,71.80
2018-06-07T11:51:31.859Z,72.00
2018-06-07T11:54:01.841Z,72.50
2018-06-07T11:56:31.996Z,72.40
2018-06-07T11:59:01.981Z,70.50
2018-06-07T12:01:32.051Z,71.10
2018-06-07T12:04:02.126Z,72.50
2018-06-07T12:06:32.377Z,70.80
2018-06-07T12:09:02.469Z,72.20
2018-06-07T12:11:32.555Z,70.20
2018-06-07T12:14:02.797Z,70.40
2018-06-07T12:16:32.999Z,72.00
2018-06-07T12:19:03.191Z,73.20
2018-06-07T12:21:33.435Z,74.60
2018-06-07T12:24:03.516Z,73.60
2018-06-07T12:26:33.786Z,69.90
2018-06-07T12:29:03.916Z,69.90
2018-06-07T12:31:34.112Z,70.10
2018-06-07T12:34:04.145Z,70.20
2018-06-07T12:36:34.169Z,73.70
2018-06-07T12:39:05.116Z,69.90
2018-06-07T12:41:35.118Z,69.20
2018-06-07T12:44:05.169Z,68.90
2018-06-07T12:46:35.170Z,70.80
2018-06-07T12:49:05.248Z,69.80
2018-06-07T12:51:35.444Z,69.40
2018-06-07T12:54:05.660Z,69.50
2018-06-07T12:56:35.698Z,71.00
2018-06-07T12:59:05.842Z,71.30
2018-06-07T13:01:35.879Z,72.40
2018-06-07T13:04:05.982Z,72.20
2018-06-07T13:06:35.984Z,68.30
2018-06-07T13:11:37.677Z,70.80
2018-06-07T13:14:07.724Z,67.10
2018-06-07T13:16:38.392Z,70.20
2018-06-07T13:19:09.100Z,68.80
2018-06-07T13:21:39.472Z,68.00
2018-06-07T13:24:09.627Z,70.30
2018-06-07T13:26:39.689Z,65.80
2018-06-07T13:29:09.783Z,66.20
2018-06-07T13:31:39.901Z,67.80
2018-06-07T13:34:10.020Z,70.00
2018-06-07T13:36:40.004Z,70.70
2018-06-07T13:39:11.312Z,65.70
2018-06-07T13:41:41.458Z,63.50
2018-06-07T13:44:11.671Z,63.10
2018-06-07T13:46:41.752Z,65.40
2018-06-07T13:49:12.502Z,67.40
2018-06-07T13:51:42.588Z,67.90
2018-06-07T13:54:12.873Z,66.90
2018-06-07T13:56:43.085Z,68.90
2018-06-07T13:59:13.411Z,67.60
2018-06-07T14:01:43.761Z,68.60
2018-06-07T14:04:13.883Z,67.80
2018-06-07T14:06:44.035Z,67.70
2018-06-07T14:09:14.325Z,69.20
2018-06-07T14:11:44.458Z,68.00
2018-06-07T14:14:14.645Z,66.10
2018-06-07T14:16:44.788Z,67.80
2018-06-07T14:19:14.875Z,68.50
2018-06-07T14:21:44.872Z,67.60
2018-06-07T14:24:14.908Z,69.40
2018-06-07T14:26:44.926Z,67.80
2018-06-07T14:29:15.020Z,68.10
2018-06-07T14:31:45.005Z,67.40
2018-06-07T14:34:15.063Z,66.20
2018-06-07T14:36:45.208Z,66.40
2018-06-07T14:39:15.397Z,66.70
2018-06-07T14:41:45.627Z,68.20
2018-06-07T14:44:15.606Z,68.00
2018-06-07T14:46:45.572Z,68.40
2018-06-07T14:49:15.575Z,67.80
2018-06-07T14:51:46.242Z,67.40
2018-06-07T14:54:16.529Z,68.60
2018-06-07T14:56:46.564Z,70.10
2018-06-07T14:59:16.582Z,71.40
2018-06-07T15:01:46.805Z,71.30
2018-06-07T15:04:17.131Z,71.40
2018-06-07T15:06:47.652Z,70.50
2018-06-07T15:09:17.969Z,70.10
2018-06-07T15:11:48.226Z,69.90
2018-06-07T15:14:18.543Z,70.00
2018-06-07T15:16:48.608Z,71.90
2018-06-07T15:19:18.786Z,72.30
2018-06-07T15:21:48.891Z,72.20
2018-06-07T15:24:19.050Z,71.20
2018-06-07T15:26:49.478Z,72.70
2018-06-07T15:29:19.649Z,69.70
2018-06-07T15:31:49.819Z,70.00
2018-06-07T15:34:20.128Z,69.60
2018-06-07T15:36:50.412Z,68.80
2018-06-07T15:39:20.567Z,69.90
2018-06-07T15:41:50.659Z,69.20
2018-06-07T15:44:20.637Z,69.00
2018-06-07T15:46:50.622Z,68.20
2018-06-07T15:49:21.335Z,69.50
2018-06-07T15:51:51.517Z,68.50
2018-06-07T15:54:22.216Z,70.00
2018-06-07T15:59:22.376Z,70.00
2018-06-07T16:01:52.603Z,69.60
2018-06-07T16:04:22.864Z,69.30
2018-06-07T16:06:53.013Z,70.60
2018-06-07T16:09:23.144Z,70.30
2018-06-07T16:11:53.283Z,71.60
2018-06-07T16:14:23.381Z,70.80
2018-06-07T16:16:53.713Z,71.40
2018-06-07T16:19:23.884Z,72.20
2018-06-07T16:21:53.992Z,72.30
2018-06-07T16:24:24.082Z,72.30
2018-06-07T16:26:55.212Z,73.60
2018-06-07T16:29:25.333Z,73.30
2018-06-07T16:31:55.987Z,73.90
2018-06-07T16:34:26.070Z,73.00
2018-06-07T16:36:56.754Z,73.60
2018-06-07T16:39:26.888Z,74.00
2018-06-07T16:41:57.047Z,74.20
2018-06-07T16:44:27.268Z,74.70
2018-06-07T16:46:57.336Z,75.00
2018-06-07T16:49:27.474Z,75.00
2018-06-07T16:51:57.585Z,75.20
2018-06-07T16:54:27.650Z,75.40
2018-06-07T16:56:57.800Z,75.50
2018-06-07T17:59:37.041Z,89.90
2018-06-07T18:02:07.137Z,90.40
2018-06-07T18:04:37.133Z,90.50
2018-06-07T18:07:07.287Z,90.80
2018-06-07T18:09:37.305Z,91.20
2018-06-07T18:12:07.648Z,91.30
2018-06-07T18:14:37.638Z,91.50
2018-06-07T18:17:07.664Z,91.60
2018-06-07T18:19:37.678Z,91.60
2018-06-07T18:22:07.849Z,91.60
2018-06-07T18:24:37.909Z,91.70
2018-06-07T18:27:08.063Z,91.90
2018-06-07T18:29:38.109Z,92.00
2018-06-07T18:32:08.380Z,92.00
2018-06-07T18:34:38.400Z,91.90
2018-06-07T18:37:08.552Z,92.00
2018-06-07T18:39:38.786Z,91.90
2018-06-07T18:42:08.911Z,92.00
2018-06-07T18:44:38.991Z,92.10
2018-06-07T18:47:09.390Z,92.40
2018-06-07T18:49:39.536Z,92.50
2018-06-07T18:54:39.422Z,92.10
2018-06-07T18:57:09.628Z,91.90
2018-06-07T18:59:39.885Z,91.80
2018-06-07T19:02:09.943Z,91.60
2018-06-07T19:04:41.873Z,91.90
2018-06-07T19:07:17.269Z,91.90
2018-06-07T19:09:52.452Z,92.10
2018-06-07T19:12:22.703Z,91.70
2018-06-07T19:14:59.211Z,91.50
2018-06-07T19:17:30.550Z,91.60
2018-06-07T19:20:05.908Z,91.70
2018-06-07T19:22:36.851Z,91.70
2018-06-07T19:25:12.259Z,91.80
2018-06-07T19:27:42.423Z,91.80
2018-06-07T19:30:12.644Z,91.70
2018-06-07T19:32:48.553Z,91.80
2018-06-07T19:35:19.452Z,92.20
2018-06-07T19:37:49.773Z,91.90
2018-06-07T19:40:25.067Z,92.00
2018-06-07T19:42:55.658Z,92.50
2018-06-07T19:45:25.804Z,92.40
2018-06-07T19:47:55.932Z,92.50
2018-06-07T19:50:26.235Z,92.40
2018-06-07T19:52:56.345Z,92.30
2018-06-07T19:55:26.419Z,92.20
2018-06-07T19:57:56.581Z,91.90
2018-06-07T20:00:26.675Z,92.00
2018-06-07T20:05:26.477Z,92.10
2018-06-07T20:07:56.642Z,92.30
2018-06-07T20:10:27.112Z,92.50
2018-06-07T20:12:57.409Z,92.50
2018-06-07T20:15:27.544Z,92.30
2018-06-07T20:17:57.720Z,92.30
2018-06-07T20:20:27.966Z,92.00
2018-06-07T20:22:59.176Z,92.10
2018-06-07T20:25:29.397Z,92.30
2018-06-07T20:27:59.492Z,92.30
2018-06-07T20:30:29.615Z,92.30
2018-06-07T20:32:59.602Z,92.40
2018-06-07T20:35:29.668Z,92.40
2018-06-07T20:37:59.717Z,92.40
2018-06-07T20:40:29.759Z,92.20
2018-06-07T20:45:29.581Z,92.40
2018-06-07T20:47:59.835Z,92.70
2018-06-07T20:50:29.972Z,92.70
2018-06-07T20:53:00.290Z,92.80
2018-06-07T20:55:30.393Z,92.70
2018-06-07T20:58:00.462Z,92.60
2018-06-07T21:00:30.486Z,92.80
2018-06-07T21:03:00.561Z,92.90
2018-06-07T21:05:30.540Z,93.00
2018-06-07T21:08:00.713Z,92.90
2018-06-07T21:13:00.296Z,93.00
2018-06-07T21:15:30.281Z,93.00
2018-06-07T21:18:00.345Z,93.00
2018-06-07T21:20:30.355Z,93.10
2018-06-07T21:23:00.403Z,93.20
2018-06-07T21:25:30.405Z,93.10
2018-06-07T21:28:00.441Z,93.20
2018-06-07T21:30:30.442Z,92.90
2018-06-07T21:33:00.448Z,93.10
2018-06-07T21:35:30.456Z,92.90
2018-06-07T21:38:00.477Z,92.90
2018-06-07T21:40:30.554Z,92.80
2018-06-07T21:43:00.534Z,92.70
2018-06-07T21:45:30.545Z,92.70
2018-06-07T21:48:00.578Z,92.70
2018-06-07T21:50:30.589Z,92.80
2018-06-07T21:53:00.609Z,92.80
2018-06-07T21:55:30.671Z,92.80
2018-06-07T21:58:00.731Z,92.80
2018-06-07T22:00:30.769Z,92.70
2018-06-07T22:03:00.768Z,92.80
2018-06-07T22:05:30.807Z,92.80
2018-06-07T22:08:00.797Z,93.00
2018-06-07T22:13:00.559Z,92.70
2018-06-07T22:15:30.662Z,92.60
2018-06-07T22:18:00.758Z,92.50
2018-06-07T22:20:30.874Z,92.40
2018-06-07T22:23:00.936Z,92.50
2018-06-07T22:25:30.984Z,92.30
2018-06-07T22:28:01.012Z,92.20
2018-06-07T22:30:31.160Z,92.20
2018-06-07T22:33:01.204Z,92.20
2018-06-07T22:35:31.282Z,92.30
2018-06-07T22:38:01.325Z,92.40
2018-06-07T22:40:31.403Z,92.50
2018-06-07T22:43:01.406Z,92.70
2018-06-07T22:45:31.465Z,92.80
2018-06-07T22:48:01.440Z,92.90
2018-06-07T22:50:31.503Z,92.80
2018-06-07T22:53:01.481Z,92.80
2018-06-07T22:58:01.470Z,92.40
2018-06-07T23:00:31.543Z,92.40
2018-06-07T23:03:01.551Z,92.50
2018-06-07T23:05:31.623Z,92.40
2018-06-07T23:08:01.787Z,92.50
2018-06-07T23:10:31.814Z,92.60
2018-06-07T23:13:01.819Z,92.80
2018-06-07T23:15:31.822Z,93.00
2018-06-07T23:18:01.835Z,93.00
2018-06-07T23:20:31.917Z,93.20
2018-06-07T23:23:01.972Z,93.30
2018-06-07T23:25:31.995Z,93.50
2018-06-07T23:28:02.044Z,93.60
2018-06-07T23:30:32.019Z,93.60
2018-06-07T23:33:02.024Z,93.60
2018-06-07T23:35:32.021Z,93.70
2018-06-07T23:38:02.048Z,93.50
2018-06-07T23:40:32.030Z,93.90
2018-06-07T23:43:02.071Z,93.50
2018-06-07T23:45:32.051Z,93.50
2018-06-07T23:48:02.065Z,93.60
2018-06-07T23:50:32.027Z,93.40
2018-06-07T23:53:02.060Z,93.40
2018-06-07T23:55:32.067Z,93.50
2018-06-07T23:58:02.071Z,93.50
